createdAt,value
2018-04-23T00:00:50.539Z,16.30
2018-04-23T00:03:17.998Z,16.30
2018-04-23T00:05:45.431Z,16.30
2018-04-23T00:08:12.910Z,16.30
2018-04-23T00:10:40.352Z,16.30
2018-04-23T00:13:07.788Z,16.30
2018-04-23T00:15:35.244Z,16.30
2018-04-23T00:18:02.694Z,16.30
2018-04-23T00:20:30.147Z,16.20
2018-04-23T00:22:57.608Z,16.20
2018-04-23T00:25:25.049Z,16.20
2018-04-23T00:27:53.254Z,16.20
2018-04-23T00:30:20.728Z,16.20
2018-04-23T00:32:48.160Z,16.10
2018-04-23T00:35:15.605Z,16.10
2018-04-23T00:37:43.070Z,16.10
2018-04-23T00:40:10.504Z,16.10
2018-04-23T00:42:37.944Z,16.10
2018-04-23T00:45:06.168Z,16.10
2018-04-23T00:47:33.610Z,16.10
2018-04-23T00:50:01.060Z,16.10
2018-04-23T00:52:28.526Z,16.10
2018-04-23T00:54:55.950Z,16.10
2018-04-23T00:57:23.394Z,16.10
2018-04-23T00:59:51.620Z,16.10
2018-04-23T01:02:19.061Z,16.00
2018-04-23T01:04:46.489Z,16.10
2018-04-23T01:07:14.702Z,16.10
2018-04-23T01:09:42.179Z,16.00
2018-04-23T01:12:10.388Z,16.10
2018-04-23T01:14:38.593Z,16.10
2018-04-23T01:17:06.052Z,16.00
2018-04-23T01:19:33.513Z,16.10
2018-04-23T01:22:00.952Z,16.10
2018-04-23T01:24:28.424Z,16.10
2018-04-23T01:26:55.869Z,16.10
2018-04-23T01:29:23.312Z,16.10
2018-04-23T01:31:50.764Z,16.10
2018-04-23T01:34:18.245Z,16.10
2018-04-23T01:36:45.691Z,16.10
2018-04-23T01:39:13.132Z,16.10
2018-04-23T01:41:40.592Z,16.00
2018-04-23T01:44:08.037Z,16.00
2018-04-23T01:46:35.757Z,16.00
2018-04-23T01:49:03.216Z,16.00
2018-04-23T01:51:30.659Z,16.00
2018-04-23T01:53:58.126Z,16.00
2018-04-23T01:56:25.620Z,16.00
2018-04-23T01:58:53.056Z,16.00
2018-04-23T02:01:21.375Z,15.90
2018-04-23T02:03:48.788Z,15.90
2018-04-23T02:06:16.996Z,15.90
2018-04-23T02:08:44.463Z,15.90
2018-04-23T02:11:11.907Z,15.90
2018-04-23T02:13:39.348Z,15.90
2018-04-23T02:16:06.860Z,15.90
2018-04-23T02:18:34.240Z,15.90
2018-04-23T02:21:02.484Z,15.90
2018-04-23T02:23:29.929Z,15.90
2018-04-23T02:25:57.373Z,15.90
2018-04-23T02:28:24.827Z,15.90
2018-04-23T02:30:52.271Z,15.90
2018-04-23T02:33:19.717Z,15.90
2018-04-23T02:35:47.194Z,15.90
2018-04-23T02:38:14.622Z,15.90
2018-04-23T02:40:42.061Z,15.90
2018-04-23T02:43:10.378Z,15.80
2018-04-23T02:45:37.816Z,15.80
2018-04-23T02:48:05.248Z,15.80
2018-04-23T02:50:33.485Z,15.80
2018-04-23T02:53:00.925Z,15.80
2018-04-23T02:55:28.352Z,15.80
2018-04-23T02:57:55.817Z,15.80
2018-04-23T03:00:23.318Z,15.80
2018-04-23T03:02:50.762Z,15.70
2018-04-23T03:05:18.215Z,15.70
2018-04-23T03:07:45.662Z,15.70
2018-04-23T03:10:13.129Z,15.70
2018-04-23T03:12:40.545Z,15.70
2018-04-23T03:15:08.013Z,15.60
2018-04-23T03:17:35.452Z,15.60
2018-04-23T03:20:03.675Z,15.60
2018-04-23T03:22:31.140Z,15.60
2018-04-23T03:24:58.569Z,15.60
2018-04-23T03:27:26.008Z,15.60
2018-04-23T03:29:53.473Z,15.60
2018-04-23T03:32:20.908Z,15.50
2018-04-23T03:34:48.344Z,15.50
2018-04-23T03:37:15.800Z,15.50
2018-04-23T03:39:45.013Z,15.40
2018-04-23T03:42:12.493Z,15.40
2018-04-23T03:44:39.933Z,15.40
2018-04-23T03:47:07.368Z,15.40
2018-04-23T03:49:35.627Z,15.40
2018-04-23T03:52:03.831Z,15.30
2018-04-23T03:54:31.301Z,15.30
2018-04-23T03:56:58.760Z,15.30
2018-04-23T03:59:26.200Z,15.30
2018-04-23T04:01:53.637Z,15.20
2018-04-23T04:04:21.091Z,15.20
2018-04-23T04:06:49.374Z,15.20
2018-04-23T04:09:16.922Z,15.20
2018-04-23T04:11:44.328Z,15.20
2018-04-23T04:14:23.652Z,15.20
2018-04-23T04:16:57.688Z,15.20
2018-04-23T04:19:25.101Z,15.20
2018-04-23T04:21:52.796Z,15.20
2018-04-23T04:24:20.268Z,15.20
2018-04-23T04:26:47.709Z,15.20
2018-04-23T04:29:15.984Z,15.10
2018-04-23T04:31:43.454Z,15.10
2018-04-23T04:34:10.889Z,15.10
2018-04-23T04:36:38.329Z,15.10
2018-04-23T04:39:06.552Z,15.10
2018-04-23T04:41:34.786Z,15.10
2018-04-23T04:44:02.218Z,15.10
2018-04-23T04:46:29.673Z,15.10
2018-04-23T04:48:57.116Z,15.00
2018-04-23T04:51:24.556Z,15.00
2018-04-23T04:53:52.779Z,15.00
2018-04-23T04:56:20.216Z,15.00
2018-04-23T04:58:47.657Z,15.00
2018-04-23T05:01:15.131Z,15.00
2018-04-23T05:03:42.572Z,15.00
2018-04-23T05:06:10.005Z,15.00
2018-04-23T05:08:37.463Z,14.90
2018-04-23T05:11:04.901Z,14.90
2018-04-23T05:13:33.129Z,14.90
2018-04-23T05:16:00.566Z,14.90
2018-04-23T05:18:28.005Z,14.90
2018-04-23T05:20:55.473Z,14.90
2018-04-23T05:23:23.048Z,14.90
2018-04-23T05:25:50.494Z,14.90
2018-04-23T05:28:17.949Z,14.90
2018-04-23T05:30:45.392Z,14.90
2018-04-23T05:33:12.872Z,14.90
2018-04-23T05:35:40.305Z,14.90
2018-04-23T05:38:07.776Z,15.00
2018-04-23T05:40:35.266Z,14.90
2018-04-23T05:43:02.662Z,14.90
2018-04-23T05:45:30.121Z,15.00
2018-04-23T05:47:57.557Z,15.00
2018-04-23T05:50:25.760Z,15.00
2018-04-23T05:52:53.228Z,15.00
2018-04-23T05:55:20.679Z,15.00
2018-04-23T05:57:48.117Z,15.00
2018-04-23T06:00:15.667Z,15.10
2018-04-23T06:02:43.880Z,15.10
2018-04-23T06:05:11.334Z,15.10
2018-04-23T06:07:38.780Z,15.10
2018-04-23T06:10:06.223Z,15.20
2018-04-23T06:12:33.670Z,15.20
2018-04-23T06:15:01.134Z,15.20
2018-04-23T06:17:28.571Z,15.30
2018-04-23T06:19:56.787Z,15.30
2018-04-23T06:22:24.242Z,15.30
2018-04-23T06:24:51.679Z,15.40
2018-04-23T06:27:19.110Z,15.40
2018-04-23T06:29:47.321Z,15.50
2018-04-23T06:32:14.783Z,15.50
2018-04-23T06:34:42.240Z,15.60
2018-04-23T06:37:09.684Z,15.70
2018-04-23T06:39:37.155Z,15.70
2018-04-23T06:42:04.606Z,15.80
2018-04-23T06:44:32.808Z,15.90
2018-04-23T06:47:00.288Z,15.80
2018-04-23T06:49:28.490Z,16.00
2018-04-23T06:51:55.925Z,16.00
2018-04-23T06:54:23.393Z,16.10
2018-04-23T06:56:50.836Z,16.10
2018-04-23T06:59:18.272Z,16.20
2018-04-23T07:01:46.555Z,16.30
2018-04-23T07:04:13.968Z,16.30
2018-04-23T07:06:41.402Z,16.40
2018-04-23T07:09:08.853Z,16.40
2018-04-23T07:11:36.289Z,16.50
2018-04-23T07:14:03.730Z,16.50
2018-04-23T07:16:31.991Z,16.60
2018-04-23T07:19:00.168Z,16.60
2018-04-23T07:21:28.369Z,16.60
2018-04-23T07:23:55.928Z,16.60
2018-04-23T07:26:23.356Z,16.70
2018-04-23T07:28:51.556Z,16.70
2018-04-23T07:31:19.037Z,16.70
2018-04-23T07:33:46.468Z,16.80
2018-04-23T07:36:13.905Z,16.80
2018-04-23T07:38:42.145Z,16.90
2018-04-23T07:41:09.593Z,16.90
2018-04-23T07:43:37.030Z,16.90
2018-04-23T07:46:04.475Z,17.00
2018-04-23T07:48:31.944Z,17.00
2018-04-23T07:50:59.381Z,17.00
2018-04-23T07:53:26.818Z,17.10
2018-04-23T07:55:54.363Z,17.10
2018-04-23T07:58:22.573Z,17.20
2018-04-23T08:00:50.013Z,17.10
2018-04-23T08:03:17.494Z,17.20
2018-04-23T08:05:44.925Z,17.20
2018-04-23T08:08:12.361Z,17.20
2018-04-23T08:10:40.593Z,17.10
2018-04-23T08:13:08.028Z,17.10
2018-04-23T08:15:35.485Z,17.10
2018-04-23T08:18:02.940Z,17.10
2018-04-23T08:20:30.379Z,17.20
2018-04-23T08:22:57.828Z,17.20
2018-04-23T08:25:25.315Z,17.30
2018-04-23T08:27:52.739Z,17.40
2018-04-23T08:30:20.192Z,17.40
2018-04-23T08:32:47.657Z,17.40
2018-04-23T08:35:15.094Z,17.40
2018-04-23T08:37:43.295Z,17.50
2018-04-23T08:40:10.757Z,17.40
2018-04-23T08:42:38.193Z,17.50
2018-04-23T08:45:05.692Z,17.50
2018-04-23T08:47:33.112Z,17.50
2018-04-23T08:50:00.557Z,17.50
2018-04-23T08:52:28.002Z,17.50
2018-04-23T08:54:56.223Z,17.50
2018-04-23T08:57:23.744Z,17.50
2018-04-23T08:59:51.938Z,17.60
2018-04-23T09:02:19.375Z,17.60
2018-04-23T09:04:46.839Z,17.60
2018-04-23T09:07:14.272Z,17.60
2018-04-23T09:09:42.485Z,17.50
2018-04-23T09:12:09.952Z,17.50
2018-04-23T09:14:37.383Z,17.60
2018-04-23T09:17:04.823Z,17.60
2018-04-23T09:19:32.273Z,17.70
2018-04-23T09:21:59.726Z,17.70
2018-04-23T09:24:27.168Z,17.80
2018-04-23T09:26:55.389Z,17.90
2018-04-23T09:29:22.843Z,17.90
2018-04-23T09:31:50.282Z,17.90
2018-04-23T09:34:17.716Z,17.90
2018-04-23T09:36:45.173Z,17.90
2018-04-23T09:39:12.603Z,17.80
2018-04-23T09:41:40.041Z,17.80
2018-04-23T09:44:07.516Z,17.70
2018-04-23T09:46:34.949Z,17.70
2018-04-23T09:49:02.405Z,17.70
2018-04-23T09:51:29.874Z,17.60
2018-04-23T09:53:57.315Z,17.60
2018-04-23T09:56:24.748Z,17.60
2018-04-23T09:58:52.235Z,17.60
2018-04-23T10:01:20.459Z,17.60
2018-04-23T10:03:50.724Z,17.60
2018-04-23T10:06:18.189Z,17.50
2018-04-23T10:08:45.620Z,17.50
2018-04-23T10:11:13.065Z,17.60
2018-04-23T10:13:40.528Z,17.50
2018-04-23T10:16:07.973Z,17.50
2018-04-23T10:18:35.413Z,17.60
2018-04-23T10:21:02.910Z,17.60
2018-04-23T10:23:30.341Z,17.50
2018-04-23T10:25:57.793Z,17.50
2018-04-23T10:28:25.260Z,17.50
2018-04-23T10:30:52.694Z,17.50
2018-04-23T10:33:20.133Z,17.50
2018-04-23T10:35:48.372Z,17.50
2018-04-23T10:38:15.816Z,17.50
2018-04-23T10:40:43.255Z,17.50
2018-04-23T10:43:10.725Z,17.60
2018-04-23T10:45:38.166Z,17.50
2018-04-23T10:48:05.605Z,17.50
2018-04-23T10:50:33.061Z,17.50
2018-04-23T10:53:00.492Z,17.50
2018-04-23T10:55:28.699Z,17.50
2018-04-23T10:57:56.185Z,17.50
2018-04-23T11:00:23.623Z,17.50
2018-04-23T11:02:51.092Z,17.50
2018-04-23T11:05:18.550Z,17.50
2018-04-23T11:07:45.995Z,17.40
2018-04-23T11:10:13.437Z,17.50
2018-04-23T11:12:40.920Z,17.50
2018-04-23T11:15:08.347Z,17.40
2018-04-23T11:17:35.783Z,17.50
2018-04-23T11:20:03.253Z,17.50
2018-04-23T11:22:30.688Z,17.50
2018-04-23T11:24:58.132Z,17.50
2018-04-23T11:27:26.384Z,17.50
2018-04-23T11:29:53.835Z,17.50
2018-04-23T11:32:21.279Z,17.50
2018-04-23T11:34:48.744Z,17.40
2018-04-23T11:37:16.186Z,17.30
2018-04-23T11:39:43.622Z,17.30
2018-04-23T11:42:11.083Z,17.20
2018-04-23T11:44:38.533Z,17.20
2018-04-23T11:47:05.978Z,17.10
2018-04-23T11:49:33.444Z,17.00
2018-04-23T11:52:00.872Z,17.00
2018-04-23T11:54:28.338Z,16.90
2018-04-23T11:56:55.782Z,16.90
2018-04-23T11:59:23.208Z,16.80
2018-04-23T12:01:51.461Z,16.60
2018-04-23T12:04:19.660Z,16.60
2018-04-23T12:06:47.870Z,16.50
2018-04-23T12:09:15.507Z,16.50
2018-04-23T12:11:43.713Z,16.30
2018-04-23T12:14:11.164Z,16.30
2018-04-23T12:16:38.626Z,16.30
2018-04-23T12:19:06.071Z,16.20
2018-04-23T12:21:33.519Z,16.20
2018-04-23T12:24:00.968Z,16.10
2018-04-23T12:26:28.411Z,16.10
2018-04-23T12:28:56.614Z,16.00
2018-04-23T12:31:24.103Z,16.00
2018-04-23T12:33:51.541Z,16.00
2018-04-23T12:36:18.961Z,16.00
2018-04-23T12:38:46.755Z,15.90
2018-04-23T12:41:14.202Z,16.00
2018-04-23T12:43:41.667Z,15.90
2018-04-23T12:46:09.189Z,15.90
2018-04-23T12:48:36.548Z,15.90
2018-04-23T12:51:04.044Z,15.90
2018-04-23T12:53:31.442Z,15.90
2018-04-23T12:55:59.657Z,15.90
2018-04-23T12:58:27.140Z,15.90
2018-04-23T13:00:54.583Z,15.90
2018-04-23T13:03:22.025Z,15.90
2018-04-23T13:05:49.623Z,15.90
2018-04-23T13:08:17.032Z,15.90
2018-04-23T13:10:44.465Z,15.90
2018-04-23T13:13:12.020Z,15.90
2018-04-23T13:15:39.468Z,15.90
2018-04-23T13:18:07.668Z,15.90
2018-04-23T13:20:35.144Z,15.90
2018-04-23T13:23:02.584Z,15.90
2018-04-23T13:25:30.034Z,15.90
2018-04-23T13:27:57.492Z,15.90
2018-04-23T13:30:24.937Z,15.90
2018-04-23T13:32:52.384Z,15.80
2018-04-23T13:35:19.841Z,15.80
2018-04-23T13:37:47.293Z,15.80
2018-04-23T13:40:14.728Z,15.80
2018-04-23T13:42:43.011Z,15.80
2018-04-23T13:45:11.161Z,15.80
2018-04-23T13:47:38.605Z,15.80
2018-04-23T13:50:06.066Z,15.80
2018-04-23T13:52:33.499Z,15.80
2018-04-23T13:55:00.938Z,15.70
2018-04-23T13:57:28.408Z,15.70
2018-04-23T13:59:55.843Z,15.70
2018-04-23T14:02:23.277Z,15.60
2018-04-23T14:04:51.507Z,15.60
2018-04-23T14:07:18.943Z,15.60
2018-04-23T14:09:46.381Z,15.60
2018-04-23T14:12:14.608Z,15.60
2018-04-23T14:14:42.049Z,15.60
2018-04-23T14:17:09.509Z,15.60
2018-04-23T14:19:36.951Z,15.60
2018-04-23T14:22:04.395Z,15.60
2018-04-23T14:24:31.858Z,15.50
2018-04-23T14:26:59.296Z,15.50
2018-04-23T14:29:26.744Z,15.50
2018-04-23T14:31:54.206Z,15.50
2018-04-23T14:34:21.658Z,15.50
2018-04-23T14:36:49.085Z,15.50
2018-04-23T14:39:17.303Z,15.60
2018-04-23T14:41:44.740Z,15.60
2018-04-23T14:44:12.200Z,15.60
2018-04-23T14:46:39.633Z,15.60
2018-04-23T14:49:07.102Z,15.60
2018-04-23T14:51:34.531Z,15.60
2018-04-23T14:54:02.767Z,15.60
2018-04-23T14:56:30.217Z,15.60
2018-04-23T14:58:57.693Z,15.60
2018-04-23T15:01:25.111Z,15.70
2018-04-23T15:03:52.563Z,15.70
2018-04-23T15:06:20.025Z,15.70
2018-04-23T15:08:47.485Z,15.70
2018-04-23T15:11:14.944Z,15.80
2018-04-23T15:13:42.377Z,15.80
2018-04-23T15:16:09.822Z,15.80
2018-04-23T15:18:37.288Z,15.80
2018-04-23T15:21:04.719Z,15.80
2018-04-23T15:23:32.163Z,15.80
2018-04-23T15:26:00.381Z,15.90
2018-04-23T15:28:27.841Z,15.90
2018-04-23T15:30:55.281Z,16.00
2018-04-23T15:33:22.737Z,16.00
2018-04-23T15:35:50.223Z,15.90
2018-04-23T15:38:17.730Z,15.90
2018-04-23T15:40:45.955Z,15.90
2018-04-23T15:43:13.408Z,15.80
2018-04-23T15:45:40.840Z,15.80
2018-04-23T15:48:08.307Z,15.80
2018-04-23T15:50:35.751Z,15.80
2018-04-23T15:53:03.193Z,15.70
2018-04-23T15:55:30.649Z,15.60
2018-04-23T15:57:58.078Z,15.60
2018-04-23T16:00:26.347Z,15.50
2018-04-23T16:02:53.812Z,15.50
2018-04-23T16:05:22.037Z,15.50
2018-04-23T16:07:49.476Z,15.50
2018-04-23T16:10:16.979Z,15.50
2018-04-23T16:12:44.421Z,15.50
2018-04-23T16:15:11.860Z,15.50
2018-04-23T16:17:39.329Z,15.40
2018-04-23T16:20:06.767Z,15.40
2018-04-23T16:22:34.213Z,15.40
2018-04-23T16:25:01.669Z,15.40
2018-04-23T16:27:29.101Z,15.40
2018-04-23T16:29:56.601Z,15.40
2018-04-23T16:32:24.002Z,15.30
2018-04-23T16:34:52.210Z,15.30
2018-04-23T16:37:19.668Z,15.20
2018-04-23T16:39:47.112Z,15.20
2018-04-23T16:42:14.555Z,15.20
2018-04-23T16:44:42.016Z,15.20
2018-04-23T16:47:09.452Z,15.20
2018-04-23T16:49:37.665Z,15.10
2018-04-23T16:52:05.132Z,15.10
2018-04-23T16:54:32.568Z,15.10
2018-04-23T16:57:00.048Z,15.10
2018-04-23T16:59:27.508Z,15.10
2018-04-23T17:01:55.101Z,15.10
2018-04-23T17:04:22.847Z,15.10
2018-04-23T17:06:50.351Z,15.10
2018-04-23T17:09:17.837Z,15.10
2018-04-23T17:11:45.435Z,15.00
2018-04-23T17:14:13.807Z,15.00
2018-04-23T17:16:42.192Z,15.00
2018-04-23T17:19:09.843Z,15.00
2018-04-23T17:21:37.565Z,15.00
2018-04-23T17:24:05.227Z,15.00
2018-04-23T17:26:32.850Z,15.00
2018-04-23T17:29:00.536Z,15.00
2018-04-23T17:31:28.164Z,15.00
2018-04-23T17:33:55.833Z,15.00
2018-04-23T17:36:23.525Z,14.90
2018-04-23T17:38:51.136Z,14.90
2018-04-23T17:41:18.812Z,14.90
2018-04-23T17:43:46.442Z,14.90
2018-04-23T17:46:14.862Z,14.90
2018-04-23T17:48:42.680Z,14.90
2018-04-23T17:51:11.084Z,14.80
2018-04-23T17:53:38.782Z,14.80
2018-04-23T17:56:06.494Z,14.80
2018-04-23T17:58:34.844Z,14.70
2018-04-23T18:01:02.565Z,14.70
2018-04-23T18:03:30.029Z,14.70
2018-04-23T18:05:57.469Z,14.70
2018-04-23T18:08:24.934Z,14.70
2018-04-23T18:10:52.381Z,14.60
2018-04-23T18:13:19.825Z,14.60
2018-04-23T18:15:48.057Z,14.50
2018-04-23T18:18:15.489Z,14.50
2018-04-23T18:20:42.923Z,14.50
2018-04-23T18:23:10.404Z,14.50
2018-04-23T18:25:37.841Z,14.40
2018-04-23T18:28:05.293Z,14.40
2018-04-23T18:30:32.752Z,14.30
2018-04-23T18:33:00.188Z,14.30
2018-04-23T18:35:27.651Z,14.30
2018-04-23T18:37:55.107Z,14.30
2018-04-23T18:40:22.602Z,14.20
2018-04-23T18:42:50.067Z,14.20
2018-04-23T18:45:17.562Z,14.20
2018-04-23T18:47:44.957Z,14.20
2018-04-23T18:50:12.430Z,14.20
2018-04-23T18:52:39.861Z,14.20
2018-04-23T18:55:07.300Z,14.20
2018-04-23T18:57:34.763Z,14.10
2018-04-23T19:00:02.204Z,14.10
2018-04-23T19:02:29.646Z,14.10
2018-04-23T19:04:57.874Z,14.10
2018-04-23T19:07:25.321Z,14.10
2018-04-23T19:09:52.765Z,14.10
2018-04-23T19:12:20.224Z,14.10
2018-04-23T19:14:47.692Z,14.10
2018-04-23T19:17:15.131Z,14.10
2018-04-23T19:19:42.570Z,14.10
2018-04-23T19:22:10.036Z,14.10
2018-04-23T19:24:37.481Z,14.10
2018-04-23T19:27:04.985Z,14.10
2018-04-23T19:29:32.465Z,14.10
2018-04-23T19:32:00.667Z,14.10
2018-04-23T19:34:28.107Z,14.10
2018-04-23T19:36:57.394Z,14.10
2018-04-23T19:39:25.707Z,14.10
2018-04-23T19:41:53.101Z,14.10
2018-04-23T19:44:20.545Z,14.10
2018-04-23T19:46:48.010Z,14.10
2018-04-23T19:49:16.795Z,14.10
2018-04-23T19:51:44.235Z,14.00
2018-04-23T19:54:11.684Z,14.00
2018-04-23T19:56:39.152Z,14.00
2018-04-23T19:59:06.596Z,14.00
2018-04-23T20:01:34.874Z,14.00
2018-04-23T20:04:02.329Z,14.00
2018-04-23T20:06:29.769Z,14.00
2018-04-23T20:08:57.226Z,14.00
2018-04-23T20:11:24.710Z,14.00
2018-04-23T20:13:52.168Z,14.00
2018-04-23T20:16:19.616Z,14.00
2018-04-23T20:21:21.072Z,14.00
2018-04-23T20:23:48.440Z,14.00
2018-04-23T20:26:15.884Z,13.90
2018-04-23T20:28:43.348Z,13.90
2018-04-23T20:31:11.559Z,14.00
2018-04-23T20:33:39.770Z,13.90
2018-04-23T20:36:07.232Z,13.90
2018-04-23T20:38:34.672Z,14.00
2018-04-23T20:41:02.153Z,13.90
2018-04-23T20:43:29.591Z,13.90
2018-04-23T20:45:57.060Z,13.90
2018-04-23T20:48:24.485Z,13.90
2018-04-23T20:50:51.920Z,13.90
2018-04-23T20:53:20.153Z,13.90
2018-04-23T20:55:47.614Z,13.80
2018-04-23T20:58:15.049Z,13.80
2018-04-23T21:00:42.524Z,13.80
2018-04-23T21:03:09.988Z,13.80
2018-04-23T21:05:37.437Z,13.80
2018-04-23T21:08:04.893Z,13.80
2018-04-23T21:10:32.355Z,13.70
2018-04-23T21:12:59.806Z,13.70
2018-04-23T21:15:27.419Z,13.70
2018-04-23T21:17:55.636Z,13.60
2018-04-23T21:20:23.072Z,13.60
2018-04-23T21:22:50.524Z,13.60
2018-04-23T21:25:17.969Z,13.60
2018-04-23T21:27:45.503Z,13.50
2018-04-23T21:30:12.865Z,13.50
2018-04-23T21:32:41.064Z,13.40
2018-04-23T21:35:08.520Z,13.30
2018-04-23T21:37:36.022Z,13.30
2018-04-23T21:40:03.430Z,13.30
2018-04-23T21:42:30.881Z,13.20
2018-04-23T21:44:58.312Z,13.20
2018-04-23T21:47:25.752Z,13.20
2018-04-23T21:49:53.984Z,13.20
2018-04-23T21:52:21.425Z,13.10
2018-04-23T21:54:48.867Z,13.20
2018-04-23T21:57:16.324Z,13.20
2018-04-23T21:59:43.762Z,13.20
2018-04-23T22:02:11.969Z,13.20
2018-04-23T22:04:39.495Z,13.20
2018-04-23T22:07:06.889Z,13.20
2018-04-23T22:09:34.328Z,13.20
2018-04-23T22:12:01.788Z,13.20
2018-04-23T22:14:29.248Z,13.20
2018-04-23T22:16:56.687Z,13.20
2018-04-23T22:19:24.143Z,13.20
2018-04-23T22:21:51.588Z,13.10
2018-04-23T22:24:19.034Z,13.20
2018-04-23T22:26:47.262Z,13.10
2018-04-23T22:29:14.705Z,13.10
2018-04-23T22:31:42.188Z,13.00
2018-04-23T22:34:09.621Z,13.00
2018-04-23T22:36:37.084Z,13.00
2018-04-23T22:39:06.708Z,12.90
2018-04-23T22:41:34.145Z,12.90
2018-04-23T22:44:01.609Z,12.80
2018-04-23T22:46:29.046Z,12.80
2018-04-23T22:48:56.512Z,12.80
2018-04-23T22:51:23.944Z,12.70
2018-04-23T22:53:51.392Z,12.70
2018-04-23T22:56:18.843Z,12.70
2018-04-23T22:58:46.281Z,12.70
2018-04-23T23:01:14.481Z,12.70
2018-04-23T23:03:41.949Z,12.60
2018-04-23T23:06:09.380Z,12.70
2018-04-23T23:08:36.829Z,12.60
2018-04-23T23:11:04.335Z,12.60
2018-04-23T23:13:31.849Z,12.60
2018-04-23T23:15:59.178Z,12.60
2018-04-23T23:18:27.413Z,12.60
2018-04-23T23:20:54.862Z,12.60
2018-04-23T23:23:22.301Z,12.60
2018-04-23T23:25:49.752Z,12.70
2018-04-23T23:28:17.187Z,12.70
2018-04-23T23:30:44.629Z,12.70
2018-04-23T23:33:12.861Z,12.70
2018-04-23T23:35:40.301Z,12.70
2018-04-23T23:38:07.735Z,12.70
2018-04-23T23:40:35.214Z,12.70
2018-04-23T23:43:02.645Z,12.70
2018-04-23T23:45:30.069Z,12.70
2018-04-23T23:47:58.307Z,12.70
2018-04-23T23:50:25.753Z,12.70
2018-04-23T23:52:53.208Z,12.70
2018-04-23T23:55:20.665Z,12.60
2018-04-23T23:57:48.110Z,12.50
